sensor_id;sensor_type;location;lat;lon;timestamp;temperature;humidity
66144;SHT31;52947;50.842;6.084;2022-07-29T00:01:41;19.73;56.56
66144;SHT31;52947;50.842;6.084;2022-07-29T00:04:09;19.74;56.93
66144;SHT31;52947;50.842;6.084;2022-07-29T00:06:37;19.84;56.58
66144;SHT31;52947;50.842;6.084;2022-07-29T00:09:05;19.83;56.24
66144;SHT31;52947;50.842;6.084;2022-07-29T00:11:35;19.80;56.50
66144;SHT31;52947;50.842;6.084;2022-07-29T00:14:04;19.78;56.49
66144;SHT31;52947;50.842;6.084;2022-07-29T00:16:32;19.84;56.41
66144;SHT31;52947;50.842;6.084;2022-07-29T00:19:00;19.73;56.35
66144;SHT31;52947;50.842;6.084;2022-07-29T00:21:28;19.62;57.19
66144;SHT31;52947;50.842;6.084;2022-07-29T00:23:56;19.39;56.95
66144;SHT31;52947;50.842;6.084;2022-07-29T00:26:24;19.09;57.90
66144;SHT31;52947;50.842;6.084;2022-07-29T00:28:55;18.76;58.55
66144;SHT31;52947;50.842;6.084;2022-07-29T00:31:43;18.62;59.41
66144;SHT31;52947;50.842;6.084;2022-07-29T00:34:11;18.61;59.14
66144;SHT31;52947;50.842;6.084;2022-07-29T00:36:53;18.48;59.47
66144;SHT31;52947;50.842;6.084;2022-07-29T00:39:21;18.43;59.20
66144;SHT31;52947;50.842;6.084;2022-07-29T00:41:49;18.36;59.48
66144;SHT31;52947;50.842;6.084;2022-07-29T00:44:20;18.37;59.62
66144;SHT31;52947;50.842;6.084;2022-07-29T00:46:47;18.41;59.76
66144;SHT31;52947;50.842;6.084;2022-07-29T00:49:15;18.41;59.69
66144;SHT31;52947;50.842;6.084;2022-07-29T00:51:44;18.40;59.96
66144;SHT31;52947;50.842;6.084;2022-07-29T00:54:12;18.48;59.95
66144;SHT31;52947;50.842;6.084;2022-07-29T00:56:40;18.65;60.02
66144;SHT31;52947;50.842;6.084;2022-07-29T00:59:08;18.82;59.66
66144;SHT31;52947;50.842;6.084;2022-07-29T01:01:37;18.73;59.19
66144;SHT31;52947;50.842;6.084;2022-07-29T01:04:06;18.87;59.08
66144;SHT31;52947;50.842;6.084;2022-07-29T01:06:34;19.03;58.87
66144;SHT31;52947;50.842;6.084;2022-07-29T01:09:02;18.85;59.71
66144;SHT31;52947;50.842;6.084;2022-07-29T01:11:30;18.82;60.03
66144;SHT31;52947;50.842;6.084;2022-07-29T01:14:00;18.89;60.15
66144;SHT31;52947;50.842;6.084;2022-07-29T01:16:32;18.75;60.05
66144;SHT31;52947;50.842;6.084;2022-07-29T01:19:07;18.72;60.71
66144;SHT31;52947;50.842;6.084;2022-07-29T01:21:50;18.55;60.57
66144;SHT31;52947;50.842;6.084;2022-07-29T01:24:35;18.51;61.00
66144;SHT31;52947;50.842;6.084;2022-07-29T01:27:22;18.30;61.31
66144;SHT31;52947;50.842;6.084;2022-07-29T01:29:58;18.21;61.60
66144;SHT31;52947;50.842;6.084;2022-07-29T01:32:33;17.96;62.08
66144;SHT31;52947;50.842;6.084;2022-07-29T01:35:06;17.93;62.26
66144;SHT31;52947;50.842;6.084;2022-07-29T01:37:39;18.00;62.52
66144;SHT31;52947;50.842;6.084;2022-07-29T01:40:14;17.97;62.38
66144;SHT31;52947;50.842;6.084;2022-07-29T01:42:49;17.94;62.49
66144;SHT31;52947;50.842;6.084;2022-07-29T01:45:23;18.00;62.87
66144;SHT31;52947;50.842;6.084;2022-07-29T01:47:58;17.87;62.64
66144;SHT31;52947;50.842;6.084;2022-07-29T01:50:31;17.75;62.66
66144;SHT31;52947;50.842;6.084;2022-07-29T01:53:03;17.97;62.72
66144;SHT31;52947;50.842;6.084;2022-07-29T01:55:35;17.86;62.98
66144;SHT31;52947;50.842;6.084;2022-07-29T01:58:05;17.75;63.10
66144;SHT31;52947;50.842;6.084;2022-07-29T02:00:34;17.72;63.18
66144;SHT31;52947;50.842;6.084;2022-07-29T02:03:07;17.72;63.15
66144;SHT31;52947;50.842;6.084;2022-07-29T02:05:37;17.89;62.79
66144;SHT31;52947;50.842;6.084;2022-07-29T02:08:07;17.73;63.35
66144;SHT31;52947;50.842;6.084;2022-07-29T02:10:40;17.86;63.20
66144;SHT31;52947;50.842;6.084;2022-07-29T02:13:11;17.83;63.57
66144;SHT31;52947;50.842;6.084;2022-07-29T02:15:42;17.80;63.38
66144;SHT31;52947;50.842;6.084;2022-07-29T02:18:14;17.72;63.81
66144;SHT31;52947;50.842;6.084;2022-07-29T02:20:45;17.63;63.84
66144;SHT31;52947;50.842;6.084;2022-07-29T02:23:17;17.75;64.06
66144;SHT31;52947;50.842;6.084;2022-07-29T02:25:48;17.75;63.54
66144;SHT31;52947;50.842;6.084;2022-07-29T02:28:19;17.70;64.03
66144;SHT31;52947;50.842;6.084;2022-07-29T02:30:50;17.53;64.34
66144;SHT31;52947;50.842;6.084;2022-07-29T02:33:21;17.55;64.61
66144;SHT31;52947;50.842;6.084;2022-07-29T02:35:50;17.65;64.51
66144;SHT31;52947;50.842;6.084;2022-07-29T02:38:21;17.73;64.42
66144;SHT31;52947;50.842;6.084;2022-07-29T02:41:11;17.76;64.27
66144;SHT31;52947;50.842;6.084;2022-07-29T02:43:40;17.94;64.09
66144;SHT31;52947;50.842;6.084;2022-07-29T02:46:14;18.07;63.38
66144;SHT31;52947;50.842;6.084;2022-07-29T02:48:59;18.07;63.79
66144;SHT31;52947;50.842;6.084;2022-07-29T02:51:33;18.20;63.33
66144;SHT31;52947;50.842;6.084;2022-07-29T02:54:20;18.26;63.24
66144;SHT31;52947;50.842;6.084;2022-07-29T02:56:49;18.20;63.15
66144;SHT31;52947;50.842;6.084;2022-07-29T02:59:22;18.44;63.22
66144;SHT31;52947;50.842;6.084;2022-07-29T03:01:54;18.21;63.56
66144;SHT31;52947;50.842;6.084;2022-07-29T03:04:24;18.23;63.50
66144;SHT31;52947;50.842;6.084;2022-07-29T03:06:58;18.23;63.52
66144;SHT31;52947;50.842;6.084;2022-07-29T03:09:27;18.34;63.51
66144;SHT31;52947;50.842;6.084;2022-07-29T03:11:56;18.47;63.31
66144;SHT31;52947;50.842;6.084;2022-07-29T03:14:24;18.47;63.32
66144;SHT31;52947;50.842;6.084;2022-07-29T03:16:54;18.36;63.06
66144;SHT31;52947;50.842;6.084;2022-07-29T03:19:22;18.26;63.76
66144;SHT31;52947;50.842;6.084;2022-07-29T03:21:51;18.14;64.17
66144;SHT31;52947;50.842;6.084;2022-07-29T03:24:30;18.14;64.07
66144;SHT31;52947;50.842;6.084;2022-07-29T03:26:58;17.92;64.61
66144;SHT31;52947;50.842;6.084;2022-07-29T03:29:27;18.07;63.71
66144;SHT31;52947;50.842;6.084;2022-07-29T03:32:02;18.03;64.11
66144;SHT31;52947;50.842;6.084;2022-07-29T03:34:33;18.00;64.14
66144;SHT31;52947;50.842;6.084;2022-07-29T03:37:01;17.92;64.86
66144;SHT31;52947;50.842;6.084;2022-07-29T03:39:32;17.92;64.28
66144;SHT31;52947;50.842;6.084;2022-07-29T03:42:00;18.07;64.07
66144;SHT31;52947;50.842;6.084;2022-07-29T03:44:30;18.01;64.47
66144;SHT31;52947;50.842;6.084;2022-07-29T03:47:01;17.85;64.84
66144;SHT31;52947;50.842;6.084;2022-07-29T03:49:30;17.70;65.13
66144;SHT31;52947;50.842;6.084;2022-07-29T03:51:59;18.00;64.41
66144;SHT31;52947;50.842;6.084;2022-07-29T03:54:28;18.14;64.05
66144;SHT31;52947;50.842;6.084;2022-07-29T03:56:59;17.93;64.83
66144;SHT31;52947;50.842;6.084;2022-07-29T03:59:27;17.76;65.01
66144;SHT31;52947;50.842;6.084;2022-07-29T04:01:55;17.61;65.68
66144;SHT31;52947;50.842;6.084;2022-07-29T04:04:26;17.61;65.49
66144;SHT31;52947;50.842;6.084;2022-07-29T04:06:54;17.65;65.56
66144;SHT31;52947;50.842;6.084;2022-07-29T04:09:22;17.73;65.37
66144;SHT31;52947;50.842;6.084;2022-07-29T04:11:50;17.73;65.23
66144;SHT31;52947;50.842;6.084;2022-07-29T04:14:30;17.90;64.89
66144;SHT31;52947;50.842;6.084;2022-07-29T04:16:58;18.11;64.46
66144;SHT31;52947;50.842;6.084;2022-07-29T04:19:27;18.11;64.39
66144;SHT31;52947;50.842;6.084;2022-07-29T04:21:56;17.90;65.05
66144;SHT31;52947;50.842;6.084;2022-07-29T04:24:24;17.94;65.07
66144;SHT31;52947;50.842;6.084;2022-07-29T04:26:53;17.93;65.27
66144;SHT31;52947;50.842;6.084;2022-07-29T04:29:21;18.10;64.62
66144;SHT31;52947;50.842;6.084;2022-07-29T04:31:49;18.24;64.09
66144;SHT31;52947;50.842;6.084;2022-07-29T04:34:16;18.24;64.43
66144;SHT31;52947;50.842;6.084;2022-07-29T04:36:46;17.94;65.17
66144;SHT31;52947;50.842;6.084;2022-07-29T04:39:14;18.18;64.69
66144;SHT31;52947;50.842;6.084;2022-07-29T04:41:48;17.90;65.20
66144;SHT31;52947;50.842;6.084;2022-07-29T04:44:21;17.63;65.93
66144;SHT31;52947;50.842;6.084;2022-07-29T04:46:55;17.55;66.31
66144;SHT31;52947;50.842;6.084;2022-07-29T04:49:23;17.36;66.67
66144;SHT31;52947;50.842;6.084;2022-07-29T04:51:53;17.45;66.62
66144;SHT31;52947;50.842;6.084;2022-07-29T04:54:21;17.28;66.93
66144;SHT31;52947;50.842;6.084;2022-07-29T04:56:52;17.52;66.33
66144;SHT31;52947;50.842;6.084;2022-07-29T04:59:20;17.69;66.02
66144;SHT31;52947;50.842;6.084;2022-07-29T05:01:48;17.75;65.83
66144;SHT31;52947;50.842;6.084;2022-07-29T05:04:16;17.85;65.91
66144;SHT31;52947;50.842;6.084;2022-07-29T05:06:45;17.68;65.29
66144;SHT31;52947;50.842;6.084;2022-07-29T05:09:14;17.73;65.69
66144;SHT31;52947;50.842;6.084;2022-07-29T05:11:42;17.69;65.44
66144;SHT31;52947;50.842;6.084;2022-07-29T05:14:10;17.58;66.39
66144;SHT31;52947;50.842;6.084;2022-07-29T05:16:38;17.55;66.48
66144;SHT31;52947;50.842;6.084;2022-07-29T05:19:07;17.56;66.47
66144;SHT31;52947;50.842;6.084;2022-07-29T05:21:40;17.62;66.21
66144;SHT31;52947;50.842;6.084;2022-07-29T05:24:07;17.69;65.89
66144;SHT31;52947;50.842;6.084;2022-07-29T05:26:37;17.73;65.83
66144;SHT31;52947;50.842;6.084;2022-07-29T05:29:05;17.70;66.12
66144;SHT31;52947;50.842;6.084;2022-07-29T05:31:53;17.42;66.09
66144;SHT31;52947;50.842;6.084;2022-07-29T05:34:21;17.36;66.34
66144;SHT31;52947;50.842;6.084;2022-07-29T05:36:48;17.48;66.61
66144;SHT31;52947;50.842;6.084;2022-07-29T05:39:17;17.43;66.26
66144;SHT31;52947;50.842;6.084;2022-07-29T05:41:47;17.31;67.00
66144;SHT31;52947;50.842;6.084;2022-07-29T05:44:17;17.39;66.64
66144;SHT31;52947;50.842;6.084;2022-07-29T05:46:45;17.66;66.61
66144;SHT31;52947;50.842;6.084;2022-07-29T05:49:15;17.63;66.60
66144;SHT31;52947;50.842;6.084;2022-07-29T05:51:52;17.59;66.48
66144;SHT31;52947;50.842;6.084;2022-07-29T05:54:20;17.63;66.32
66144;SHT31;52947;50.842;6.084;2022-07-29T05:56:49;17.72;65.99
66144;SHT31;52947;50.842;6.084;2022-07-29T05:59:20;17.83;66.17
66144;SHT31;52947;50.842;6.084;2022-07-29T06:01:55;17.80;66.11
66144;SHT31;52947;50.842;6.084;2022-07-29T06:04:23;17.69;66.05
66144;SHT31;52947;50.842;6.084;2022-07-29T06:06:52;17.45;65.88
66144;SHT31;52947;50.842;6.084;2022-07-29T06:09:19;17.45;66.12
66144;SHT31;52947;50.842;6.084;2022-07-29T06:11:47;17.35;66.01
66144;SHT31;52947;50.842;6.084;2022-07-29T06:14:16;17.52;66.09
66144;SHT31;52947;50.842;6.084;2022-07-29T06:16:45;17.72;65.76
66144;SHT31;52947;50.842;6.084;2022-07-29T06:19:13;17.89;65.71
66144;SHT31;52947;50.842;6.084;2022-07-29T06:21:41;17.69;66.00
66144;SHT31;52947;50.842;6.084;2022-07-29T06:24:10;17.79;65.94
66144;SHT31;52947;50.842;6.084;2022-07-29T06:26:39;17.96;65.79
66144;SHT31;52947;50.842;6.084;2022-07-29T06:29:08;17.83;65.69
66144;SHT31;52947;50.842;6.084;2022-07-29T06:31:38;17.85;65.88
66144;SHT31;52947;50.842;6.084;2022-07-29T06:34:07;17.80;66.01
66144;SHT31;52947;50.842;6.084;2022-07-29T06:36:35;17.83;66.09
66144;SHT31;52947;50.842;6.084;2022-07-29T06:39:04;17.79;66.23
66144;SHT31;52947;50.842;6.084;2022-07-29T06:41:33;17.78;66.74
66144;SHT31;52947;50.842;6.084;2022-07-29T06:44:08;17.89;66.33
66144;SHT31;52947;50.842;6.084;2022-07-29T06:46:37;17.89;66.41
66144;SHT31;52947;50.842;6.084;2022-07-29T06:49:05;17.76;66.81
66144;SHT31;52947;50.842;6.084;2022-07-29T06:51:34;17.80;66.67
66144;SHT31;52947;50.842;6.084;2022-07-29T06:54:02;17.83;66.47
66144;SHT31;52947;50.842;6.084;2022-07-29T06:56:33;17.92;66.10
66144;SHT31;52947;50.842;6.084;2022-07-29T06:59:06;18.00;66.00
66144;SHT31;52947;50.842;6.084;2022-07-29T07:01:35;18.06;65.65
66144;SHT31;52947;50.842;6.084;2022-07-29T07:04:05;18.34;65.27
66144;SHT31;52947;50.842;6.084;2022-07-29T07:06:32;18.75;64.60
66144;SHT31;52947;50.842;6.084;2022-07-29T07:09:01;19.93;62.23
66144;SHT31;52947;50.842;6.084;2022-07-29T07:11:29;20.14;61.46
66144;SHT31;52947;50.842;6.084;2022-07-29T07:13:57;20.55;61.08
66144;SHT31;52947;50.842;6.084;2022-07-29T07:16:29;20.80;60.36
66144;SHT31;52947;50.842;6.084;2022-07-29T07:18:58;22.33;56.87
66144;SHT31;52947;50.842;6.084;2022-07-29T07:21:27;22.15;56.60
66144;SHT31;52947;50.842;6.084;2022-07-29T07:23:56;23.14;54.80
66144;SHT31;52947;50.842;6.084;2022-07-29T07:26:24;24.98;50.73
66144;SHT31;52947;50.842;6.084;2022-07-29T07:28:52;24.53;50.75
66144;SHT31;52947;50.842;6.084;2022-07-29T07:31:20;25.02;50.12
66144;SHT31;52947;50.842;6.084;2022-07-29T07:33:49;26.18;47.05
66144;SHT31;52947;50.842;6.084;2022-07-29T07:36:18;25.30;48.30
66144;SHT31;52947;50.842;6.084;2022-07-29T07:38:47;24.72;49.44
66144;SHT31;52947;50.842;6.084;2022-07-29T07:41:15;25.20;49.04
66144;SHT31;52947;50.842;6.084;2022-07-29T07:43:43;24.75;48.26
66144;SHT31;52947;50.842;6.084;2022-07-29T07:46:14;24.37;50.07
66144;SHT31;52947;50.842;6.084;2022-07-29T07:48:42;24.84;48.18
66144;SHT31;52947;50.842;6.084;2022-07-29T07:51:10;25.42;47.50
66144;SHT31;52947;50.842;6.084;2022-07-29T07:53:38;25.40;48.32
66144;SHT31;52947;50.842;6.084;2022-07-29T07:56:09;25.05;48.37
66144;SHT31;52947;50.842;6.084;2022-07-29T07:58:38;24.50;50.19
66144;SHT31;52947;50.842;6.084;2022-07-29T08:01:07;24.58;50.16
66144;SHT31;52947;50.842;6.084;2022-07-29T08:03:35;24.33;51.02
66144;SHT31;52947;50.842;6.084;2022-07-29T08:06:04;25.07;49.11
66144;SHT31;52947;50.842;6.084;2022-07-29T08:08:32;25.07;49.33
66144;SHT31;52947;50.842;6.084;2022-07-29T08:11:00;24.54;49.82
66144;SHT31;52947;50.842;6.084;2022-07-29T08:13:37;23.49;52.12
66144;SHT31;52947;50.842;6.084;2022-07-29T08:16:06;24.26;51.08
66144;SHT31;52947;50.842;6.084;2022-07-29T08:18:43;23.83;51.89
66144;SHT31;52947;50.842;6.084;2022-07-29T08:21:11;25.25;49.16
66144;SHT31;52947;50.842;6.084;2022-07-29T08:23:41;24.74;48.83
66144;SHT31;52947;50.842;6.084;2022-07-29T08:26:24;24.20;49.76
66144;SHT31;52947;50.842;6.084;2022-07-29T08:28:56;23.49;52.11
66144;SHT31;52947;50.842;6.084;2022-07-29T08:31:23;22.98;53.48
66144;SHT31;52947;50.842;6.084;2022-07-29T08:33:51;22.63;54.73
66144;SHT31;52947;50.842;6.084;2022-07-29T08:36:19;22.32;55.36
66144;SHT31;52947;50.842;6.084;2022-07-29T08:38:48;22.23;55.71
66144;SHT31;52947;50.842;6.084;2022-07-29T08:41:17;22.45;55.62
66144;SHT31;52947;50.842;6.084;2022-07-29T08:43:46;22.40;55.73
66144;SHT31;52947;50.842;6.084;2022-07-29T08:46:15;22.40;55.88
66144;SHT31;52947;50.842;6.084;2022-07-29T08:48:44;22.13;56.31
66144;SHT31;52947;50.842;6.084;2022-07-29T08:51:13;21.81;56.28
66144;SHT31;52947;50.842;6.084;2022-07-29T08:53:43;21.89;56.34
66144;SHT31;52947;50.842;6.084;2022-07-29T08:56:12;22.01;56.52
66144;SHT31;52947;50.842;6.084;2022-07-29T08:58:41;21.86;56.42
66144;SHT31;52947;50.842;6.084;2022-07-29T09:01:22;22.06;56.11
66144;SHT31;52947;50.842;6.084;2022-07-29T09:04:11;22.28;56.06
66144;SHT31;52947;50.842;6.084;2022-07-29T09:06:43;22.47;55.21
66144;SHT31;52947;50.842;6.084;2022-07-29T09:09:14;22.63;54.91
66144;SHT31;52947;50.842;6.084;2022-07-29T09:11:42;23.01;54.25
66144;SHT31;52947;50.842;6.084;2022-07-29T09:14:12;23.19;53.50
66144;SHT31;52947;50.842;6.084;2022-07-29T09:16:53;23.68;52.90
66144;SHT31;52947;50.842;6.084;2022-07-29T09:19:23;24.92;50.25
66144;SHT31;52947;50.842;6.084;2022-07-29T09:21:52;24.51;50.03
66144;SHT31;52947;50.842;6.084;2022-07-29T09:24:41;24.34;50.31
66144;SHT31;52947;50.842;6.084;2022-07-29T09:27:12;24.63;50.36
66144;SHT31;52947;50.842;6.084;2022-07-29T09:29:45;25.40;48.83
66144;SHT31;52947;50.842;6.084;2022-07-29T09:32:15;27.04;47.03
66144;SHT31;52947;50.842;6.084;2022-07-29T09:34:42;27.78;44.30
66144;SHT31;52947;50.842;6.084;2022-07-29T09:37:10;28.18;42.56
66144;SHT31;52947;50.842;6.084;2022-07-29T09:39:40;28.28;42.08
66144;SHT31;52947;50.842;6.084;2022-07-29T09:42:12;27.81;42.90
66144;SHT31;52947;50.842;6.084;2022-07-29T09:44:44;26.80;45.43
66144;SHT31;52947;50.842;6.084;2022-07-29T09:47:12;28.00;43.64
66144;SHT31;52947;50.842;6.084;2022-07-29T09:49:55;28.33;43.79
66144;SHT31;52947;50.842;6.084;2022-07-29T09:52:25;28.64;42.71
66144;SHT31;52947;50.842;6.084;2022-07-29T09:55:04;29.25;41.47
66144;SHT31;52947;50.842;6.084;2022-07-29T09:57:32;29.68;40.87
66144;SHT31;52947;50.842;6.084;2022-07-29T10:00:01;28.72;42.67
66144;SHT31;52947;50.842;6.084;2022-07-29T10:02:38;29.15;42.05
66144;SHT31;52947;50.842;6.084;2022-07-29T10:05:17;29.72;40.86
66144;SHT31;52947;50.842;6.084;2022-07-29T10:07:45;29.21;42.18
66144;SHT31;52947;50.842;6.084;2022-07-29T10:10:21;29.01;42.86
66144;SHT31;52947;50.842;6.084;2022-07-29T10:12:54;27.74;45.53
66144;SHT31;52947;50.842;6.084;2022-07-29T10:15:24;27.19;46.29
66144;SHT31;52947;50.842;6.084;2022-07-29T10:17:53;27.58;45.85
66144;SHT31;52947;50.842;6.084;2022-07-29T10:20:23;28.56;44.17
66144;SHT31;52947;50.842;6.084;2022-07-29T10:22:52;29.15;43.52
66144;SHT31;52947;50.842;6.084;2022-07-29T10:25:20;29.27;43.84
66144;SHT31;52947;50.842;6.084;2022-07-29T10:27:51;28.21;45.11
66144;SHT31;52947;50.842;6.084;2022-07-29T10:30:20;29.21;43.68
66144;SHT31;52947;50.842;6.084;2022-07-29T10:33:09;29.73;42.62
66144;SHT31;52947;50.842;6.084;2022-07-29T10:35:58;29.55;42.95
66144;SHT31;52947;50.842;6.084;2022-07-29T10:38:49;30.61;40.60
66144;SHT31;52947;50.842;6.084;2022-07-29T10:41:37;30.33;41.26
66144;SHT31;52947;50.842;6.084;2022-07-29T10:44:14;30.84;40.84
66144;SHT31;52947;50.842;6.084;2022-07-29T10:47:03;30.94;40.20
66144;SHT31;52947;50.842;6.084;2022-07-29T10:49:31;30.88;39.93
66144;SHT31;52947;50.842;6.084;2022-07-29T10:52:05;31.02;40.39
66144;SHT31;52947;50.842;6.084;2022-07-29T10:54:48;30.43;40.82
66144;SHT31;52947;50.842;6.084;2022-07-29T10:57:20;30.27;41.39
66144;SHT31;52947;50.842;6.084;2022-07-29T11:00:29;29.35;42.57
66144;SHT31;52947;50.842;6.084;2022-07-29T11:03:00;29.59;42.40
66144;SHT31;52947;50.842;6.084;2022-07-29T11:05:53;29.73;41.29
66144;SHT31;52947;50.842;6.084;2022-07-29T11:08:26;30.03;41.52
66144;SHT31;52947;50.842;6.084;2022-07-29T11:14:03;30.60;39.93
66144;SHT31;52947;50.842;6.084;2022-07-29T11:17:01;31.41;39.05
66144;SHT31;52947;50.842;6.084;2022-07-29T11:19:34;31.70;38.14
66144;SHT31;52947;50.842;6.084;2022-07-29T11:22:08;31.10;39.62
66144;SHT31;52947;50.842;6.084;2022-07-29T11:24:38;31.62;38.54
66144;SHT31;52947;50.842;6.084;2022-07-29T11:27:17;30.71;39.45
66144;SHT31;52947;50.842;6.084;2022-07-29T11:29:54;31.24;38.59
66144;SHT31;52947;50.842;6.084;2022-07-29T11:32:25;30.78;39.43
66144;SHT31;52947;50.842;6.084;2022-07-29T11:35:12;30.95;39.51
66144;SHT31;52947;50.842;6.084;2022-07-29T11:37:43;31.39;38.72
66144;SHT31;52947;50.842;6.084;2022-07-29T11:40:22;31.55;38.29
66144;SHT31;52947;50.842;6.084;2022-07-29T11:42:51;31.26;38.89
66144;SHT31;52947;50.842;6.084;2022-07-29T11:45:23;31.66;38.80
66144;SHT31;52947;50.842;6.084;2022-07-29T11:48:17;31.98;36.83
66144;SHT31;52947;50.842;6.084;2022-07-29T11:50:56;31.92;36.40
66144;SHT31;52947;50.842;6.084;2022-07-29T11:53:24;31.76;36.97
66144;SHT31;52947;50.842;6.084;2022-07-29T11:55:59;31.96;35.89
66144;SHT31;52947;50.842;6.084;2022-07-29T11:58:29;31.18;37.55
66144;SHT31;52947;50.842;6.084;2022-07-29T12:00:57;31.42;36.20
66144;SHT31;52947;50.842;6.084;2022-07-29T12:03:46;31.85;36.78
66144;SHT31;52947;50.842;6.084;2022-07-29T12:06:14;31.19;37.33
66144;SHT31;52947;50.842;6.084;2022-07-29T12:09:06;31.96;35.94
66144;SHT31;52947;50.842;6.084;2022-07-29T12:11:41;31.39;36.41
66144;SHT31;52947;50.842;6.084;2022-07-29T12:14:25;30.17;38.90
66144;SHT31;52947;50.842;6.084;2022-07-29T12:16:53;31.49;37.04
66144;SHT31;52947;50.842;6.084;2022-07-29T12:19:21;31.70;37.03
66144;SHT31;52947;50.842;6.084;2022-07-29T12:21:52;30.87;38.92
66144;SHT31;52947;50.842;6.084;2022-07-29T12:24:25;31.08;38.10
66144;SHT31;52947;50.842;6.084;2022-07-29T12:26:56;30.63;40.02
66144;SHT31;52947;50.842;6.084;2022-07-29T12:29:24;29.90;40.60
66144;SHT31;52947;50.842;6.084;2022-07-29T12:32:02;30.90;38.60
66144;SHT31;52947;50.842;6.084;2022-07-29T12:34:31;30.99;39.32
66144;SHT31;52947;50.842;6.084;2022-07-29T12:36:59;30.68;39.12
66144;SHT31;52947;50.842;6.084;2022-07-29T12:39:29;30.91;38.60
66144;SHT31;52947;50.842;6.084;2022-07-29T12:41:59;31.02;38.50
66144;SHT31;52947;50.842;6.084;2022-07-29T12:44:43;30.64;39.21
66144;SHT31;52947;50.842;6.084;2022-07-29T12:47:11;31.31;38.89
66144;SHT31;52947;50.842;6.084;2022-07-29T12:49:39;30.92;38.93
66144;SHT31;52947;50.842;6.084;2022-07-29T12:52:27;29.86;40.25
66144;SHT31;52947;50.842;6.084;2022-07-29T12:54:55;28.04;43.30
66144;SHT31;52947;50.842;6.084;2022-07-29T12:57:25;28.94;41.80
66144;SHT31;52947;50.842;6.084;2022-07-29T13:00:04;29.48;40.02
66144;SHT31;52947;50.842;6.084;2022-07-29T13:02:34;28.94;41.03
66144;SHT31;52947;50.842;6.084;2022-07-29T13:05:04;29.38;40.78
66144;SHT31;52947;50.842;6.084;2022-07-29T13:07:34;29.31;40.50
66144;SHT31;52947;50.842;6.084;2022-07-29T13:10:23;30.32;39.46
66144;SHT31;52947;50.842;6.084;2022-07-29T13:13:08;29.18;41.66
66144;SHT31;52947;50.842;6.084;2022-07-29T13:15:37;28.35;42.55
66144;SHT31;52947;50.842;6.084;2022-07-29T13:18:26;28.49;41.79
66144;SHT31;52947;50.842;6.084;2022-07-29T13:20:55;28.25;41.50
66144;SHT31;52947;50.842;6.084;2022-07-29T13:23:23;28.16;40.50
66144;SHT31;52947;50.842;6.084;2022-07-29T13:25:51;27.61;42.19
66144;SHT31;52947;50.842;6.084;2022-07-29T13:28:22;27.13;43.35
66144;SHT31;52947;50.842;6.084;2022-07-29T13:30:49;27.23;43.71
66144;SHT31;52947;50.842;6.084;2022-07-29T13:33:17;27.37;42.98
66144;SHT31;52947;50.842;6.084;2022-07-29T13:35:45;27.61;42.32
66144;SHT31;52947;50.842;6.084;2022-07-29T13:38:14;27.87;40.79
66144;SHT31;52947;50.842;6.084;2022-07-29T13:40:42;27.84;41.28
66144;SHT31;52947;50.842;6.084;2022-07-29T13:43:10;27.82;40.20
66144;SHT31;52947;50.842;6.084;2022-07-29T13:45:39;28.09;40.12
66144;SHT31;52947;50.842;6.084;2022-07-29T13:48:07;27.04;41.37
66144;SHT31;52947;50.842;6.084;2022-07-29T13:50:35;26.98;42.99
66144;SHT31;52947;50.842;6.084;2022-07-29T13:53:03;27.34;42.35
66144;SHT31;52947;50.842;6.084;2022-07-29T13:55:31;27.61;41.30
66144;SHT31;52947;50.842;6.084;2022-07-29T13:57:59;27.24;42.87
66144;SHT31;52947;50.842;6.084;2022-07-29T14:00:29;27.46;42.73
66144;SHT31;52947;50.842;6.084;2022-07-29T14:02:59;27.46;42.67
66144;SHT31;52947;50.842;6.084;2022-07-29T14:05:26;27.55;43.21
66144;SHT31;52947;50.842;6.084;2022-07-29T14:07:54;27.80;42.66
66144;SHT31;52947;50.842;6.084;2022-07-29T14:10:22;27.87;42.66
66144;SHT31;52947;50.842;6.084;2022-07-29T14:12:50;27.50;43.34
66144;SHT31;52947;50.842;6.084;2022-07-29T14:15:18;27.30;43.89
66144;SHT31;52947;50.842;6.084;2022-07-29T14:17:46;27.27;44.31
66144;SHT31;52947;50.842;6.084;2022-07-29T14:20:16;27.44;43.96
66144;SHT31;52947;50.842;6.084;2022-07-29T14:22:44;27.16;44.23
66144;SHT31;52947;50.842;6.084;2022-07-29T14:25:12;27.24;44.59
66144;SHT31;52947;50.842;6.084;2022-07-29T14:27:41;27.17;44.52
66144;SHT31;52947;50.842;6.084;2022-07-29T14:30:10;26.75;45.10
66144;SHT31;52947;50.842;6.084;2022-07-29T14:32:38;27.00;44.53
66144;SHT31;52947;50.842;6.084;2022-07-29T14:35:06;26.79;43.93
66144;SHT31;52947;50.842;6.084;2022-07-29T14:37:36;26.83;44.42
66144;SHT31;52947;50.842;6.084;2022-07-29T14:40:07;26.44;46.13
66144;SHT31;52947;50.842;6.084;2022-07-29T14:42:35;26.48;45.68
66144;SHT31;52947;50.842;6.084;2022-07-29T14:45:05;26.52;45.32
66144;SHT31;52947;50.842;6.084;2022-07-29T14:47:33;26.61;45.74
66144;SHT31;52947;50.842;6.084;2022-07-29T14:50:02;26.71;45.08
66144;SHT31;52947;50.842;6.084;2022-07-29T14:52:30;26.52;46.08
66144;SHT31;52947;50.842;6.084;2022-07-29T14:54:59;26.51;45.84
66144;SHT31;52947;50.842;6.084;2022-07-29T14:57:27;26.17;46.98
66144;SHT31;52947;50.842;6.084;2022-07-29T14:59:55;26.18;47.00
66144;SHT31;52947;50.842;6.084;2022-07-29T15:02:23;26.37;46.84
66144;SHT31;52947;50.842;6.084;2022-07-29T15:05:11;26.37;47.03
66144;SHT31;52947;50.842;6.084;2022-07-29T15:07:39;26.42;46.35
66144;SHT31;52947;50.842;6.084;2022-07-29T15:10:08;26.14;47.27
66144;SHT31;52947;50.842;6.084;2022-07-29T15:12:40;25.86;47.95
66144;SHT31;52947;50.842;6.084;2022-07-29T15:15:08;25.26;49.33
66144;SHT31;52947;50.842;6.084;2022-07-29T15:17:36;25.29;49.40
66144;SHT31;52947;50.842;6.084;2022-07-29T15:20:05;25.54;48.47
66144;SHT31;52947;50.842;6.084;2022-07-29T15:22:33;25.80;48.31
66144;SHT31;52947;50.842;6.084;2022-07-29T15:25:00;25.69;48.39
66144;SHT31;52947;50.842;6.084;2022-07-29T15:27:30;25.66;48.66
66144;SHT31;52947;50.842;6.084;2022-07-29T15:29:58;25.71;49.00
66144;SHT31;52947;50.842;6.084;2022-07-29T15:32:26;25.84;48.93
66144;SHT31;52947;50.842;6.084;2022-07-29T15:34:54;25.79;49.24
66144;SHT31;52947;50.842;6.084;2022-07-29T15:37:21;25.70;49.27
66144;SHT31;52947;50.842;6.084;2022-07-29T15:39:49;25.67;49.14
66144;SHT31;52947;50.842;6.084;2022-07-29T15:42:17;25.71;48.55
66144;SHT31;52947;50.842;6.084;2022-07-29T15:44:46;25.83;48.39
66144;SHT31;52947;50.842;6.084;2022-07-29T15:47:14;25.81;48.16
66144;SHT31;52947;50.842;6.084;2022-07-29T15:49:42;25.76;48.30
66144;SHT31;52947;50.842;6.084;2022-07-29T15:52:16;25.90;48.09
66144;SHT31;52947;50.842;6.084;2022-07-29T15:54:52;26.13;47.66
66144;SHT31;52947;50.842;6.084;2022-07-29T15:57:20;26.20;47.26
66144;SHT31;52947;50.842;6.084;2022-07-29T15:59:50;26.30;47.10